Time;durP1;ratioP1;P1;durP2;ratioP2;P2;SDS_P1;SDS_P2;PMS_P1;PMS_P2;Temp;Humidity;BMP_temperature;BMP_pressure;BME280_temperature;BME280_humidity;BME280_pressure;Samples;Min_cycle;Max_cycle;Signal;HPM_P1;HPM_P2
2022/10/01 00:08:29;;;;;;;2.43;1.77;;;7.30;97.30;;;;;;5001708;28;20493;-86
2022/10/01 00:10:55;;;;;;;5.90;2.50;;;7.30;97.30;;;;;;5024133;28;20440;-90
2022/10/01 00:13:21;;;;;;;3.10;2.90;;;7.20;97.30;;;;;;5022425;28;20417;-89
2022/10/01 00:15:47;;;;;;;6.00;3.40;;;7.20;97.30;;;;;;5024011;28;20185;-89
2022/10/01 00:18:20;;;;;;;2.90;2.27;;;7.20;97.30;;;;;;5026507;28;20455;-89
2022/10/01 00:20:48;;;;;;;3.23;2.33;;;7.20;97.30;;;;;;5023361;28;20430;-90
2022/10/01 00:23:21;;;;;;;6.30;3.10;;;7.20;97.30;;;;;;5024775;28;20447;-89
2022/10/01 00:25:51;;;;;;;5.33;4.03;;;7.10;97.30;;;;;;5026571;28;20468;-89
2022/10/01 00:28:16;;;;;;;4.10;2.13;;;7.20;97.30;;;;;;5025418;28;20424;-89
2022/10/01 00:30:46;;;;;;;1.73;1.63;;;7.10;97.30;;;;;;5025319;28;20458;-90
2022/10/01 00:33:11;;;;;;;1.80;1.60;;;7.10;97.30;;;;;;5024305;28;20173;-90
2022/10/01 00:35:37;;;;;;;2.47;2.17;;;7.10;97.30;;;;;;5024978;28;20518;-89
2022/10/01 00:38:02;;;;;;;1.87;1.30;;;7.10;97.30;;;;;;5025609;28;20212;-89
2022/10/01 00:40:28;;;;;;;2.97;1.97;;;7.10;97.30;;;;;;5029121;28;20208;-90
2022/10/01 00:42:56;;;;;;;2.53;2.17;;;7.10;97.30;;;;;;5032207;28;20189;-90
2022/10/01 00:45:21;;;;;;;2.90;1.93;;;7.10;97.30;;;;;;5031477;28;20228;-90
2022/10/01 00:47:54;;;;;;;2.50;2.13;;;7.10;97.30;;;;;;5032567;28;20492;-90
2022/10/01 00:50:33;;;;;;;5.10;2.87;;;7.10;97.30;;;;;;5031618;28;20385;-90
2022/10/01 00:53:03;;;;;;;2.43;2.23;;;7.00;97.30;;;;;;5031181;28;20416;-89
2022/10/01 00:55:35;;;;;;;1.97;1.87;;;7.00;97.30;;;;;;5031417;28;20427;-91
2022/10/01 00:58:01;;;;;;;2.60;1.83;;;7.00;97.30;;;;;;5030190;28;20435;-90
2022/10/01 01:01:12;;;;;;;5.83;2.40;;;7.00;97.30;;;;;;5031006;28;20428;-90
2022/10/01 01:04:30;;;;;;;3.97;2.63;;;6.90;97.30;;;;;;5032246;28;20428;-90
2022/10/01 01:16:33;;;;;;;1.50;1.40;;;6.80;97.30;;;;;;4931441;29;20476;-89
2022/10/01 01:19:21;;;;;;;3.83;2.40;;;6.80;97.30;;;;;;5032058;28;20440;-89
2022/10/01 01:22:38;;;;;;;3.37;3.27;;;6.80;97.30;;;;;;5030244;28;20416;-90
2022/10/01 01:25:10;;;;;;;2.70;1.87;;;6.90;97.30;;;;;;5029796;28;20419;-90
2022/10/01 01:27:52;;;;;;;2.63;2.43;;;6.90;97.30;;;;;;5032767;28;20416;-90
2022/10/01 01:30:19;;;;;;;2.73;2.53;;;6.80;97.30;;;;;;5032901;28;20515;-89
2022/10/01 01:32:58;;;;;;;2.30;1.40;;;6.80;97.30;;;;;;5031821;28;20412;-90
2022/10/01 01:35:30;;;;;;;2.10;1.77;;;6.80;97.30;;;;;;5031685;28;20450;-90
2022/10/01 01:38:00;;;;;;;3.33;1.87;;;6.80;97.30;;;;;;5031301;28;20507;-90
2022/10/01 01:40:29;;;;;;;1.60;1.50;;;6.90;97.30;;;;;;5045378;28;20459;-89
2022/10/01 01:42:58;;;;;;;2.50;2.30;;;6.90;97.30;;;;;;5032672;28;20734;-91
2022/10/01 01:45:29;;;;;;;1.93;1.53;;;6.90;97.30;;;;;;5034097;28;20459;-90
2022/10/01 01:47:57;;;;;;;1.77;1.67;;;7.00;97.30;;;;;;5034840;28;20499;-89
2022/10/01 01:50:32;;;;;;;2.47;2.23;;;7.00;97.30;;;;;;5034549;28;20507;-90
2022/10/01 01:53:01;;;;;;;2.60;2.40;;;7.10;97.30;;;;;;5034451;28;20412;-90
2022/10/01 01:55:30;;;;;;;3.10;2.17;;;7.10;97.30;;;;;;5035090;28;20443;-91
2022/10/01 01:58:00;;;;;;;1.87;1.83;;;7.10;97.30;;;;;;5034556;28;20408;-90
2022/10/01 02:00:28;;;;;;;2.10;1.83;;;7.10;97.30;;;;;;5033805;28;20750;-90
2022/10/01 02:02:59;;;;;;;2.63;1.70;;;7.10;97.30;;;;;;5034228;28;20405;-90
2022/10/01 02:05:35;;;;;;;2.60;1.83;;;7.10;97.30;;;;;;5034398;28;20464;-90
2022/10/01 02:08:18;;;;;;;1.50;1.40;;;7.20;97.30;;;;;;5035207;28;20435;-90
2022/10/01 02:11:08;;;;;;;1.60;1.50;;;7.20;97.30;;;;;;5034636;28;20408;-91
2022/10/01 02:14:00;;;;;;;4.53;3.93;;;7.20;97.30;;;;;;5051398;28;20423;-89
2022/10/01 02:16:35;;;;;;;6.83;3.50;;;7.20;97.30;;;;;;5023985;28;20435;-91
2022/10/01 02:19:32;;;;;;;3.67;1.40;;;7.30;97.30;;;;;;5014585;28;20440;-90
2022/10/01 02:22:01;;;;;;;2.87;2.70;;;7.30;97.30;;;;;;5015711;28;20452;-90
2022/10/01 02:24:42;;;;;;;1.80;1.70;;;7.30;97.30;;;;;;5015433;28;20421;-89
2022/10/01 02:27:17;;;;;;;2.67;1.83;;;7.40;97.30;;;;;;5013847;28;20476;-90
2022/10/01 02:29:45;;;;;;;1.30;1.20;;;7.40;97.30;;;;;;5014485;28;20472;-90
2022/10/01 02:32:12;;;;;;;1.67;1.57;;;7.40;97.30;;;;;;5014488;28;20420;-90
2022/10/01 02:34:39;;;;;;;1.70;1.60;;;7.50;97.30;;;;;;5014028;28;20436;-89
2022/10/01 02:37:06;;;;;;;2.63;1.23;;;7.50;97.30;;;;;;5014833;28;20426;-91
2022/10/01 02:39:34;;;;;;;4.70;3.03;;;7.60;97.30;;;;;;5011996;28;20441;-91
2022/10/01 02:42:01;;;;;;;3.00;2.70;;;7.60;97.30;;;;;;5011199;28;20700;-90
2022/10/01 02:44:36;;;;;;;1.30;1.20;;;7.70;97.30;;;;;;5006822;28;20425;-90
2022/10/01 02:47:08;;;;;;;2.93;1.90;;;7.70;97.30;;;;;;5007095;28;20475;-90
2022/10/01 02:49:35;;;;;;;1.20;1.10;;;7.80;97.30;;;;;;5007321;28;20429;-90
2022/10/01 02:52:30;;;;;;;3.03;2.40;;;7.80;97.30;;;;;;5007577;28;20448;-90
2022/10/01 02:55:07;;;;;;;1.67;1.57;;;7.80;97.30;;;;;;5005315;28;20424;-90
2022/10/01 02:57:33;;;;;;;1.40;1.30;;;7.90;97.30;;;;;;5008491;28;20420;-90
2022/10/01 03:00:05;;;;;;;3.40;3.20;;;7.90;97.30;;;;;;5006697;28;20433;-90
2022/10/01 03:02:31;;;;;;;2.00;1.73;;;7.90;97.30;;;;;;5005384;28;20432;-91
2022/10/01 03:04:58;;;;;;;1.73;1.67;;;7.90;97.30;;;;;;5010319;28;20393;-89
2022/10/01 03:07:25;;;;;;;1.67;1.40;;;8.00;97.30;;;;;;5011611;28;20451;-90
2022/10/01 03:09:51;;;;;;;1.70;1.47;;;8.00;97.30;;;;;;5009318;28;20451;-91
2022/10/01 03:12:17;;;;;;;4.30;2.20;;;8.00;97.30;;;;;;5006803;28;20489;-91
2022/10/01 03:14:48;;;;;;;1.63;1.53;;;8.00;97.30;;;;;;5009360;28;20182;-89
2022/10/01 03:17:14;;;;;;;2.30;1.60;;;8.10;97.30;;;;;;5027117;28;20220;-90
2022/10/01 03:19:41;;;;;;;2.33;2.13;;;8.10;97.30;;;;;;5033068;28;20448;-90
2022/10/01 03:22:08;;;;;;;6.30;2.70;;;8.10;97.30;;;;;;5029013;28;20435;-90
2022/10/01 03:24:34;;;;;;;1.87;1.63;;;8.10;97.30;;;;;;5028271;28;20472;-91
2022/10/01 03:26:59;;;;;;;2.57;2.37;;;8.20;97.30;;;;;;5030100;28;20470;-90
2022/10/01 03:29:25;;;;;;;5.93;1.83;;;8.20;97.30;;;;;;5030456;28;20491;-90
2022/10/01 03:31:51;;;;;;;2.13;1.87;;;8.20;97.30;;;;;;5029673;28;20756;-90
2022/10/01 03:34:20;;;;;;;2.67;1.97;;;8.20;97.30;;;;;;5028627;28;20421;-89
2022/10/01 03:36:45;;;;;;;2.10;1.70;;;8.20;97.30;;;;;;5040669;28;20428;-89
2022/10/01 03:39:11;;;;;;;2.77;2.07;;;8.20;97.30;;;;;;5021205;28;20519;-89
2022/10/01 03:41:37;;;;;;;1.67;1.57;;;8.30;97.30;;;;;;5023492;28;20486;-90
2022/10/01 03:44:03;;;;;;;2.60;1.57;;;8.30;97.30;;;;;;5026287;28;20409;-89
2022/10/01 03:46:29;;;;;;;3.33;1.70;;;8.30;97.30;;;;;;5028185;28;20240;-90
2022/10/01 03:48:56;;;;;;;1.37;1.30;;;8.30;97.30;;;;;;5029804;28;20420;-91
2022/10/01 03:51:22;;;;;;;2.97;2.40;;;8.30;97.30;;;;;;5032144;28;20200;-90
2022/10/01 03:53:50;;;;;;;2.53;2.33;;;8.30;97.30;;;;;;5031676;28;20431;-90
2022/10/01 03:56:18;;;;;;;3.23;2.23;;;8.30;97.30;;;;;;5029228;28;20421;-91
2022/10/01 03:58:43;;;;;;;2.00;1.63;;;8.30;97.30;;;;;;5025008;28;20538;-90
2022/10/01 04:01:09;;;;;;;2.60;1.67;;;8.30;97.30;;;;;;5027487;28;20420;-92
2022/10/01 04:03:35;;;;;;;1.73;1.63;;;8.30;97.30;;;;;;5028792;28;20177;-91
2022/10/01 04:06:00;;;;;;;4.27;2.80;;;8.30;97.30;;;;;;5025348;28;20272;-90
2022/10/01 04:08:26;;;;;;;5.97;2.53;;;8.40;97.30;;;;;;5019513;28;20231;-90
2022/10/01 04:10:51;;;;;;;5.40;2.43;;;8.40;97.30;;;;;;5018348;28;20192;-89
2022/10/01 04:13:19;;;;;;;1.90;1.67;;;8.40;97.30;;;;;;5019202;28;20272;-89
2022/10/01 04:15:47;;;;;;;1.60;1.50;;;8.40;97.30;;;;;;5015963;28;20269;-91
2022/10/01 04:18:15;;;;;;;3.97;2.53;;;8.40;97.30;;;;;;5000703;28;20417;-90
2022/10/01 04:20:40;;;;;;;2.97;2.17;;;8.50;97.30;;;;;;4996442;28;20413;-89
2022/10/01 04:23:06;;;;;;;1.90;1.80;;;8.50;97.30;;;;;;4996280;28;20421;-90
2022/10/01 04:25:31;;;;;;;2.03;1.90;;;8.60;97.30;;;;;;4996519;28;20835;-89
2022/10/01 04:27:59;;;;;;;2.37;2.17;;;8.60;97.30;;;;;;4999635;28;20653;-90
2022/10/01 04:30:32;;;;;;;1.50;1.40;;;8.60;97.30;;;;;;4999994;28;20217;-89
2022/10/01 04:32:57;;;;;;;4.77;2.63;;;8.60;97.30;;;;;;4999806;28;20404;-89
2022/10/01 04:35:23;;;;;;;1.77;1.73;;;8.70;97.30;;;;;;4998597;28;20417;-90
2022/10/01 04:37:55;;;;;;;3.87;2.70;;;8.70;97.30;;;;;;4998344;28;20178;-90
2022/10/01 04:40:21;;;;;;;3.00;2.50;;;8.70;97.30;;;;;;5000943;28;20281;-86
2022/10/01 04:42:46;;;;;;;2.83;2.63;;;8.70;97.30;;;;;;4999967;28;20515;-90
2022/10/01 04:45:12;;;;;;;6.53;2.70;;;8.70;97.30;;;;;;4997930;28;20209;-90
2022/10/01 04:47:46;;;;;;;3.30;2.43;;;8.80;97.30;;;;;;4995438;28;20720;-90
2022/10/01 04:50:11;;;;;;;1.63;1.53;;;8.80;97.30;;;;;;4996127;28;20190;-91
2022/10/01 04:52:37;;;;;;;2.23;2.03;;;8.80;97.30;;;;;;4997221;28;20436;-92
2022/10/01 04:55:02;;;;;;;4.07;3.87;;;8.80;97.30;;;;;;4997170;28;20268;-89
2022/10/01 04:57:28;;;;;;;4.10;2.50;;;8.80;97.30;;;;;;4996249;28;20205;-90
2022/10/01 04:59:54;;;;;;;4.20;2.63;;;8.80;97.30;;;;;;4997991;28;20216;-91
2022/10/01 05:02:20;;;;;;;5.37;3.40;;;8.80;97.30;;;;;;5000391;28;20170;-89
2022/10/01 05:04:48;;;;;;;2.30;2.10;;;8.80;97.30;;;;;;4999906;28;20189;-90
2022/10/01 05:07:15;;;;;;;3.70;2.20;;;8.80;97.30;;;;;;4997920;28;20205;-90
2022/10/01 05:09:41;;;;;;;1.97;1.87;;;8.80;97.30;;;;;;5002179;28;20523;-90
2022/10/01 05:12:06;;;;;;;3.37;2.90;;;8.90;97.30;;;;;;4998067;28;20500;-90
2022/10/01 05:14:32;;;;;;;6.83;3.20;;;8.90;97.30;;;;;;4996600;28;20269;-90
2022/10/01 05:16:58;;;;;;;6.53;2.20;;;8.90;97.30;;;;;;5014804;28;20203;-91
2022/10/01 05:19:30;;;;;;;4.90;2.87;;;8.90;97.30;;;;;;5018983;28;20198;-89
2022/10/01 05:21:56;;;;;;;2.17;2.00;;;8.90;97.30;;;;;;5018550;28;20248;-91
2022/10/01 05:24:22;;;;;;;4.83;2.30;;;8.90;97.30;;;;;;5018033;28;20440;-89
2022/10/01 05:26:47;;;;;;;5.47;3.57;;;8.90;97.30;;;;;;5017705;28;20205;-90
2022/10/01 05:29:14;;;;;;;1.37;1.30;;;8.90;97.30;;;;;;5018997;28;20464;-93
2022/10/01 05:31:43;;;;;;;2.40;2.20;;;9.00;97.30;;;;;;5021199;28;20173;-90
2022/10/01 05:34:09;;;;;;;3.33;1.70;;;9.00;97.30;;;;;;5018017;28;20440;-90
2022/10/01 05:36:35;;;;;;;2.87;2.17;;;9.00;97.30;;;;;;5008158;28;20433;-90
2022/10/01 05:39:00;;;;;;;2.90;2.70;;;9.00;97.30;;;;;;4998034;28;20441;-90
2022/10/01 05:41:28;;;;;;;2.07;1.93;;;9.10;97.30;;;;;;4998954;28;20177;-90
2022/10/01 05:43:56;;;;;;;3.20;2.97;;;9.10;97.30;;;;;;4997644;28;20192;-90
2022/10/01 05:46:22;;;;;;;1.90;1.80;;;9.10;97.30;;;;;;4995454;28;20469;-90
2022/10/01 05:48:50;;;;;;;3.47;2.80;;;9.20;97.30;;;;;;4996613;28;20826;-90
2022/10/01 05:51:18;;;;;;;3.97;3.43;;;9.20;97.30;;;;;;4995849;28;20227;-91
2022/10/01 05:53:47;;;;;;;3.40;2.40;;;9.30;97.30;;;;;;4994680;28;20409;-90
2022/10/01 05:56:13;;;;;;;2.67;2.40;;;9.30;97.30;;;;;;4995179;28;20405;-89
2022/10/01 05:58:38;;;;;;;4.97;2.00;;;9.30;97.30;;;;;;4992257;28;20863;-90
2022/10/01 06:01:04;;;;;;;3.10;2.37;;;9.40;97.30;;;;;;4992862;28;20186;-90
2022/10/01 06:03:30;;;;;;;4.60;2.93;;;9.40;97.30;;;;;;4995257;28;20180;-89
2022/10/01 06:05:55;;;;;;;4.93;2.40;;;9.40;97.30;;;;;;4996119;28;20284;-89
2022/10/01 06:08:21;;;;;;;8.03;3.23;;;9.50;97.30;;;;;;4994678;28;20208;-91
2022/10/01 06:10:48;;;;;;;3.27;3.07;;;9.50;97.30;;;;;;4995373;28;20181;-90
2022/10/01 06:13:16;;;;;;;5.80;2.17;;;9.50;97.30;;;;;;4993609;28;20182;-90
2022/10/01 06:15:43;;;;;;;2.83;2.30;;;9.60;97.30;;;;;;5001571;28;20512;-90
2022/10/01 06:18:10;;;;;;;2.80;2.63;;;9.60;97.30;;;;;;5016440;28;20415;-89
2022/10/01 06:20:37;;;;;;;3.23;1.60;;;9.70;97.30;;;;;;5014296;28;20468;-90
2022/10/01 06:23:06;;;;;;;3.37;3.20;;;9.70;97.30;;;;;;5013816;28;20534;-90
2022/10/01 06:25:33;;;;;;;3.73;3.37;;;9.80;97.30;;;;;;5012234;28;20531;-90
2022/10/01 06:28:00;;;;;;;5.37;4.10;;;9.80;97.30;;;;;;5014861;28;20420;-89
2022/10/01 06:30:28;;;;;;;4.83;3.87;;;9.80;97.30;;;;;;5013220;28;20525;-90
2022/10/01 06:33:04;;;;;;;4.43;3.23;;;9.90;97.30;;;;;;5014209;28;20408;-90
2022/10/01 06:35:30;;;;;;;2.93;2.77;;;9.90;97.30;;;;;;5014300;28;20454;-90
2022/10/01 06:37:57;;;;;;;2.07;1.90;;;10.00;97.30;;;;;;5014137;28;20427;-90
2022/10/01 06:40:23;;;;;;;4.13;2.27;;;10.00;97.30;;;;;;5014082;28;20436;-90
2022/10/01 06:42:50;;;;;;;2.40;2.07;;;10.00;97.30;;;;;;5014960;28;20515;-89
2022/10/01 06:45:17;;;;;;;3.23;2.53;;;10.10;97.30;;;;;;5015498;28;20425;-90
2022/10/01 06:47:50;;;;;;;1.57;1.57;;;10.10;97.30;;;;;;5016726;28;20423;-90
2022/10/01 06:50:19;;;;;;;4.10;2.43;;;10.10;97.30;;;;;;5018819;28;20432;-91
2022/10/01 06:52:50;;;;;;;3.07;1.73;;;10.20;97.30;;;;;;5020627;28;20474;-90
2022/10/01 06:55:20;;;;;;;2.17;2.00;;;10.20;97.30;;;;;;5020180;28;20435;-89
2022/10/01 06:57:47;;;;;;;3.20;2.53;;;10.30;97.30;;;;;;5019244;28;20443;-89
2022/10/01 07:00:13;;;;;;;2.90;2.70;;;10.30;97.30;;;;;;5017693;28;20467;-90
2022/10/01 07:02:39;;;;;;;4.40;2.57;;;10.40;97.30;;;;;;5019149;28;20467;-91
2022/10/01 07:05:08;;;;;;;3.03;2.20;;;10.40;97.30;;;;;;5017177;28;20560;-90
2022/10/01 07:07:36;;;;;;;5.90;3.13;;;10.40;97.30;;;;;;5017336;28;20419;-90
2022/10/01 07:10:04;;;;;;;3.73;3.30;;;10.50;97.30;;;;;;5017938;28;20442;-89
2022/10/01 07:12:30;;;;;;;11.00;4.37;;;10.50;97.30;;;;;;5016299;28;20484;-89
2022/10/01 07:14:55;;;;;;;2.63;1.63;;;10.60;97.30;;;;;;5017840;28;20416;-90
2022/10/01 07:17:21;;;;;;;1.63;1.50;;;10.60;97.30;;;;;;4999612;28;20185;-90
2022/10/01 07:19:47;;;;;;;4.87;2.47;;;10.60;97.30;;;;;;5000678;28;20262;-90
2022/10/01 07:22:13;;;;;;;2.63;2.43;;;10.70;97.30;;;;;;5019274;28;20325;-91
2022/10/01 07:24:38;;;;;;;6.20;2.60;;;10.70;97.30;;;;;;4999132;28;20284;-91
2022/10/01 07:27:05;;;;;;;3.60;2.73;;;10.70;97.30;;;;;;5015238;28;20215;-90
2022/10/01 07:29:31;;;;;;;2.80;2.37;;;10.80;97.30;;;;;;5015424;28;20244;-90
2022/10/01 07:31:58;;;;;;;2.30;1.83;;;10.80;97.30;;;;;;5014669;28;20502;-90
2022/10/01 07:34:25;;;;;;;6.20;3.03;;;10.80;97.30;;;;;;5016158;28;20200;-92
2022/10/01 07:36:50;;;;;;;1.83;1.70;;;10.80;97.30;;;;;;5035477;28;20420;-90
2022/10/01 07:39:16;;;;;;;3.27;1.90;;;10.90;97.30;;;;;;5017889;28;20493;-91
2022/10/01 07:41:42;;;;;;;2.50;2.30;;;10.90;97.30;;;;;;5014731;28;20208;-90
2022/10/01 07:44:10;;;;;;;3.83;2.80;;;10.90;97.30;;;;;;5015453;28;20173;-90
2022/10/01 07:46:39;;;;;;;2.33;1.67;;;11.00;97.30;;;;;;5017871;28;20494;-90
2022/10/01 07:49:05;;;;;;;2.40;2.20;;;11.00;97.30;;;;;;5015910;28;20440;-90
2022/10/01 07:51:31;;;;;;;2.23;2.07;;;11.00;97.30;;;;;;5014094;28;20481;-90
2022/10/01 07:53:57;;;;;;;6.37;3.20;;;11.00;97.30;;;;;;5016609;28;20169;-90
2022/10/01 07:56:26;;;;;;;3.50;1.97;;;11.10;97.30;;;;;;5014722;28;20849;-90
2022/10/01 07:58:56;;;;;;;6.83;4.20;;;11.10;97.30;;;;;;5017131;28;20444;-91
2022/10/01 08:01:21;;;;;;;3.43;1.90;;;11.10;97.30;;;;;;5019082;28;20420;-91
2022/10/01 08:03:51;;;;;;;2.90;2.27;;;11.10;97.30;;;;;;5018241;28;20470;-89
2022/10/01 08:06:18;;;;;;;3.93;2.90;;;11.00;97.30;;;;;;5015189;28;20204;-91
2022/10/01 08:08:45;;;;;;;1.87;1.80;;;11.00;97.30;;;;;;5016207;28;20475;-90
2022/10/01 08:11:13;;;;;;;3.10;2.10;;;10.90;97.30;;;;;;5015220;28;20513;-90
2022/10/01 08:13:40;;;;;;;5.63;2.50;;;10.90;97.30;;;;;;5014392;28;20499;-90
2022/10/01 08:16:08;;;;;;;2.93;2.30;;;10.90;97.30;;;;;;5015211;28;20435;-90
2022/10/01 08:18:35;;;;;;;1.60;1.50;;;10.90;97.30;;;;;;5015725;28;20886;-89
2022/10/01 08:21:01;;;;;;;6.57;1.93;;;10.90;97.30;;;;;;5014087;28;20428;-90
2022/10/01 08:23:28;;;;;;;3.30;2.40;;;10.80;97.30;;;;;;5013906;28;20994;-89
2022/10/01 08:26:06;;;;;;;3.13;2.00;;;10.80;97.30;;;;;;5013814;28;20464;-89
2022/10/01 08:28:35;;;;;;;1.60;1.50;;;10.80;97.30;;;;;;5014783;28;20781;-89
2022/10/01 08:31:08;;;;;;;6.30;1.90;;;10.80;97.30;;;;;;5017364;28;20470;-90
2022/10/01 08:33:36;;;;;;;5.73;5.07;;;10.80;97.30;;;;;;5016353;28;20489;-91
2022/10/01 08:36:02;;;;;;;3.60;2.13;;;10.90;97.30;;;;;;5016803;28;20719;-90
2022/10/01 08:38:30;;;;;;;2.70;2.43;;;10.90;97.30;;;;;;5016477;28;20424;-88
2022/10/01 08:40:59;;;;;;;9.43;2.77;;;10.80;97.30;;;;;;5014704;28;20431;-89
2022/10/01 08:43:37;;;;;;;2.43;2.20;;;10.80;97.30;;;;;;5013957;28;20424;-90
2022/10/01 08:46:05;;;;;;;2.23;1.73;;;10.80;97.30;;;;;;5015924;28;20466;-90
2022/10/01 08:48:52;;;;;;;2.57;2.03;;;10.80;97.30;;;;;;5012052;28;20421;-90
2022/10/01 08:51:38;;;;;;;2.27;2.07;;;10.80;97.30;;;;;;5018936;28;20428;-90
2022/10/01 08:54:14;;;;;;;3.30;1.43;;;10.80;97.30;;;;;;5000919;28;20418;-90
2022/10/01 08:56:45;;;;;;;1.87;1.77;;;10.90;97.30;;;;;;5029492;28;20969;-89
2022/10/01 08:59:34;;;;;;;1.87;1.77;;;10.90;97.30;;;;;;5003879;28;20966;-90
2022/10/01 09:02:00;;;;;;;1.37;1.30;;;10.90;97.30;;;;;;5013306;28;20869;-89
2022/10/01 09:04:26;;;;;;;2.83;1.87;;;10.90;97.30;;;;;;5017146;28;20451;-90
2022/10/01 09:07:03;;;;;;;2.13;1.73;;;10.90;97.30;;;;;;5009491;28;20612;-91
2022/10/01 09:10:01;;;;;;;1.67;1.57;;;10.90;97.30;;;;;;5007183;28;20814;-90
2022/10/01 09:12:51;;;;;;;2.80;2.67;;;10.90;97.30;;;;;;4974014;28;20511;-89
2022/10/01 09:15:34;;;;;;;3.27;2.13;;;10.90;97.30;;;;;;5014437;28;20427;-90
2022/10/01 09:18:24;;;;;;;2.50;2.30;;;11.00;97.30;;;;;;5013087;28;20438;-89
2022/10/01 09:20:53;;;;;;;3.43;2.20;;;11.00;97.30;;;;;;5030145;28;20985;-89
2022/10/01 09:23:30;;;;;;;5.13;3.00;;;11.00;97.30;;;;;;4997394;28;20424;-89
2022/10/01 09:25:59;;;;;;;4.67;2.23;;;11.00;97.30;;;;;;5029024;28;21014;-88
2022/10/01 09:28:34;;;;;;;5.43;2.53;;;11.00;97.30;;;;;;5014582;28;20741;-88
2022/10/01 09:31:12;;;;;;;3.20;3.00;;;11.00;97.30;;;;;;5016974;28;20462;-89
2022/10/01 09:33:49;;;;;;;2.07;1.87;;;11.00;97.30;;;;;;5003183;28;20444;-91
2022/10/01 09:36:33;;;;;;;1.20;1.10;;;11.00;97.30;;;;;;5018896;28;20419;-90
2022/10/01 09:39:26;;;;;;;4.20;3.00;;;11.00;97.30;;;;;;5009625;28;21057;-91
2022/10/01 09:41:52;;;;;;;2.50;2.17;;;11.00;97.30;;;;;;5005944;28;21287;-90
2022/10/01 09:44:23;;;;;;;7.40;2.30;;;10.90;97.30;;;;;;5011054;28;20420;-90
2022/10/01 09:46:48;;;;;;;2.40;2.20;;;10.90;97.30;;;;;;5022972;28;20225;-89
2022/10/01 09:49:29;;;;;;;2.20;1.40;;;10.90;97.30;;;;;;5017335;28;20447;-91
2022/10/01 09:52:01;;;;;;;3.00;2.87;;;10.90;97.30;;;;;;5030498;28;20181;-90
2022/10/01 09:54:50;;;;;;;5.03;1.70;;;10.90;97.30;;;;;;5021107;28;20820;-93
2022/10/01 09:57:23;;;;;;;2.73;2.10;;;10.80;97.30;;;;;;5017867;28;20459;-93
2022/10/01 10:00:01;;;;;;;1.50;1.37;;;10.80;97.30;;;;;;5010215;28;20436;-90
2022/10/01 10:02:31;;;;;;;2.07;1.40;;;10.80;97.30;;;;;;5018657;28;20472;-91
2022/10/01 10:05:08;;;;;;;1.67;1.57;;;10.90;97.30;;;;;;5026112;28;20567;-92
2022/10/01 10:07:53;;;;;;;2.43;1.97;;;10.90;97.30;;;;;;5008373;28;20528;-91
2022/10/01 10:10:27;;;;;;;3.80;2.20;;;10.90;97.30;;;;;;5002684;28;20429;-92
2022/10/01 10:13:13;;;;;;;2.33;2.13;;;10.90;97.30;;;;;;5014477;28;20478;-91
2022/10/01 10:15:52;;;;;;;2.20;2.07;;;10.90;97.30;;;;;;5030831;28;20456;-90
2022/10/01 10:18:26;;;;;;;1.40;1.30;;;10.90;97.30;;;;;;5007449;28;20562;-89
2022/10/01 10:20:53;;;;;;;1.30;1.20;;;10.80;97.30;;;;;;5022365;28;20492;-90
2022/10/01 10:27:11;;;;;;;1.33;1.23;;;10.90;97.30;;;;;;4938836;29;20559;-88
2022/10/01 10:30:02;;;;;;;1.33;1.23;;;10.80;97.30;;;;;;4916711;29;20541;-88
2022/10/01 10:36:33;;;;;;;1.10;1.10;;;10.80;97.30;;;;;;4897363;29;20522;-86
2022/10/01 10:39:07;;;;;;;1.43;1.37;;;10.80;97.30;;;;;;4903611;29;20445;-89
2022/10/01 10:41:33;;;;;;;2.20;1.50;;;10.80;97.30;;;;;;4922922;29;20424;-86
2022/10/01 10:44:23;;;;;;;5.33;2.60;;;10.80;97.30;;;;;;4926432;29;20425;-89
2022/10/01 10:47:13;;;;;;;1.70;1.60;;;10.80;97.30;;;;;;4925219;29;20910;-90
2022/10/01 10:49:57;;;;;;;1.23;1.23;;;10.80;97.30;;;;;;4895573;29;20453;-89
2022/10/01 10:52:39;;;;;;;3.07;2.43;;;10.80;97.30;;;;;;5018911;28;20418;-93
2022/10/01 10:55:29;;;;;;;1.10;1.10;;;10.80;97.30;;;;;;5022906;28;20488;-90
2022/10/01 10:58:08;;;;;;;1.40;1.30;;;10.70;97.30;;;;;;5014156;28;20428;-93
2022/10/01 11:00:43;;;;;;;1.53;1.40;;;10.70;97.30;;;;;;5018596;28;20446;-91
2022/10/01 11:03:17;;;;;;;1.10;1.03;;;10.80;97.30;;;;;;5026873;28;20425;-90
2022/10/01 11:05:43;;;;;;;1.33;1.33;;;10.80;97.30;;;;;;5025696;28;20469;-93
2022/10/01 11:08:19;;;;;;;2.40;1.57;;;10.80;97.30;;;;;;5011323;28;20408;-90
2022/10/01 11:11:01;;;;;;;1.47;1.37;;;10.80;97.30;;;;;;5014656;28;20412;-91
2022/10/01 11:13:46;;;;;;;1.70;1.30;;;10.80;97.30;;;;;;5029181;28;20540;-93
2022/10/01 11:16:36;;;;;;;1.00;1.00;;;10.90;97.30;;;;;;5027132;28;20420;-90
2022/10/01 11:19:19;;;;;;;1.87;1.43;;;10.90;97.30;;;;;;5029487;28;20459;-93
2022/10/01 11:21:52;;;;;;;1.20;1.20;;;10.90;97.30;;;;;;5040567;28;20459;-86
2022/10/01 11:24:42;;;;;;;3.00;1.30;;;11.00;97.30;;;;;;5031217;28;20416;-90
2022/10/01 11:34:22;;;;;;;7.60;1.77;;;11.00;97.30;;;;;;4940099;29;20482;-90
2022/10/01 11:37:12;;;;;;;1.37;1.17;;;11.10;97.30;;;;;;4928900;29;20432;-90
2022/10/01 11:43:03;;;;;;;1.60;1.30;;;11.10;97.30;;;;;;5004453;28;20505;-92
2022/10/01 11:46:03;;;;;;;1.70;1.43;;;11.10;97.30;;;;;;4982174;28;20546;-88
2022/10/01 11:49:04;;;;;;;1.13;1.07;;;11.20;97.30;;;;;;5002139;28;20823;-88
2022/10/01 11:52:03;;;;;;;1.13;1.03;;;11.20;97.30;;;;;;4999837;28;20421;-89
2022/10/01 11:54:44;;;;;;;4.10;1.70;;;11.20;97.30;;;;;;4987467;28;20432;-87
2022/10/01 12:00:23;;;;;;;1.63;1.53;;;11.30;97.30;;;;;;5010024;28;20454;-90
2022/10/01 12:03:22;;;;;;;1.37;1.20;;;11.30;97.30;;;;;;5025424;28;20423;-89
2022/10/01 12:06:03;;;;;;;2.40;1.10;;;11.30;97.30;;;;;;5006968;28;20495;-88
2022/10/01 12:09:04;;;;;;;1.00;0.90;;;11.30;97.30;;;;;;5014315;28;20431;-86
2022/10/01 12:12:30;;;;;;;1.33;1.23;;;11.30;97.30;;;;;;4960065;28;20430;-89
2022/10/01 12:15:50;;;;;;;2.57;1.20;;;11.30;97.30;;;;;;4967180;28;20427;-90
2022/10/01 12:18:31;;;;;;;1.10;1.00;;;11.30;97.30;;;;;;5022215;28;20423;-89
2022/10/01 12:21:01;;;;;;;1.13;1.03;;;11.20;97.30;;;;;;5035701;28;20444;-92
2022/10/01 12:23:31;;;;;;;1.23;1.13;;;11.30;97.30;;;;;;5019393;28;20480;-89
2022/10/01 12:26:26;;;;;;;2.50;2.30;;;11.30;97.30;;;;;;5019012;28;20478;-89
2022/10/01 12:29:03;;;;;;;1.50;1.40;;;11.30;97.30;;;;;;5035424;28;20448;-89
2022/10/01 12:31:36;;;;;;;0.90;0.80;;;11.30;97.30;;;;;;5017825;28;20419;-89
2022/10/01 12:34:43;;;;;;;0.90;0.80;;;11.30;97.30;;;;;;5019504;28;20454;-89
2022/10/01 12:37:39;;;;;;;1.10;1.00;;;11.30;97.30;;;;;;5016823;28;20427;-88
2022/10/01 12:40:32;;;;;;;2.60;1.03;;;11.30;97.30;;;;;;5017212;28;20689;-90
2022/10/01 12:43:05;;;;;;;1.07;0.97;;;11.40;97.30;;;;;;5017743;28;20419;-88
2022/10/01 12:45:43;;;;;;;1.20;1.00;;;11.40;97.30;;;;;;5020153;28;20482;-90
2022/10/01 12:48:21;;;;;;;2.10;1.07;;;11.40;97.30;;;;;;5020657;28;20450;-91
2022/10/01 12:51:14;;;;;;;1.10;1.00;;;11.50;97.30;;;;;;5026636;28;20415;-88
2022/10/01 12:53:46;;;;;;;0.90;0.80;;;11.50;97.30;;;;;;5026199;28;20482;-89
2022/10/01 12:56:32;;;;;;;1.10;1.00;;;11.60;97.30;;;;;;5029137;28;20412;-90
2022/10/01 12:59:28;;;;;;;1.10;1.00;;;11.60;97.30;;;;;;5014666;28;20458;-89
2022/10/01 13:02:18;;;;;;;1.30;1.20;;;11.60;97.30;;;;;;5020209;28;20419;-89
2022/10/01 13:05:05;;;;;;;1.10;1.00;;;11.70;97.30;;;;;;5019613;28;20518;-89
2022/10/01 13:07:55;;;;;;;1.00;0.90;;;11.80;97.30;;;;;;5033034;28;20455;-89
2022/10/01 13:10:28;;;;;;;1.00;0.90;;;11.80;97.30;;;;;;5023862;28;20451;-88
2022/10/01 13:13:00;;;;;;;1.20;1.10;;;11.80;97.30;;;;;;5027076;28;20466;-88
2022/10/01 13:15:34;;;;;;;0.90;0.80;;;11.80;97.30;;;;;;5025649;28;20416;-88
2022/10/01 13:18:42;;;;;;;1.80;1.50;;;11.80;97.30;;;;;;5022960;28;20426;-89
2022/10/01 13:21:40;;;;;;;2.40;1.60;;;11.80;97.30;;;;;;5028183;28;20407;-88
2022/10/01 13:24:39;;;;;;;1.10;1.00;;;11.80;97.30;;;;;;4997222;28;20420;-87
2022/10/01 13:27:27;;;;;;;1.07;0.97;;;11.80;97.30;;;;;;5017970;28;20957;-88
2022/10/01 13:29:59;;;;;;;1.50;1.07;;;11.80;97.30;;;;;;5011898;28;20440;-88
2022/10/01 13:32:36;;;;;;;1.27;1.20;;;11.90;97.30;;;;;;5015060;28;20442;-89
2022/10/01 13:35:31;;;;;;;1.00;0.90;;;11.80;97.30;;;;;;5017351;28;20431;-87
2022/10/01 13:37:57;;;;;;;1.10;1.00;;;11.90;97.30;;;;;;5018356;28;20450;-88
2022/10/01 13:40:29;;;;;;;1.13;1.03;;;11.90;97.30;;;;;;5021654;28;20463;-88
2022/10/01 13:43:14;;;;;;;1.10;1.00;;;11.90;97.30;;;;;;5022650;28;20466;-88
2022/10/01 13:45:43;;;;;;;1.20;1.00;;;12.00;97.30;;;;;;5015065;28;20456;-88
2022/10/01 13:48:11;;;;;;;1.70;1.60;;;12.00;97.30;;;;;;5011950;28;20413;-88
2022/10/01 13:50:54;;;;;;;1.20;1.10;;;12.10;97.30;;;;;;5010873;28;20627;-88
2022/10/01 13:53:24;;;;;;;1.00;0.90;;;12.20;97.30;;;;;;5010766;28;20431;-88
2022/10/01 13:55:52;;;;;;;1.20;1.10;;;12.20;97.30;;;;;;5011800;28;20416;-88
2022/10/01 13:58:22;;;;;;;1.83;1.50;;;12.30;97.30;;;;;;5015191;28;20408;-88
2022/10/01 14:00:53;;;;;;;2.40;1.53;;;12.30;97.30;;;;;;5017644;28;20416;-88
2022/10/01 14:03:27;;;;;;;1.00;0.90;;;12.30;97.30;;;;;;5021711;28;20442;-88